KRYY

Cobb County International-McCollum Field Airport

Atlanta, Georgia, USA
METAR KRYY 161848Z 29008KT 10SM CLR 07/01 A3025 RMK AO2 SLP967 T00670006
Observed Flight Rules
Jan-16 @ 18:48 UTC (30 minutes ago) Visual Flight Rules
Wind Visibility Clouds
290° at 8 knots 10 miles
  • Clear skies
Temperatures Readings
Current 7°C / 45°F
Dewpoint 1°C / 34°F
Humidity 66%
Altimeter 30.25" Hg
Pressure 996.7 hPa
Elevation 317
METAR KRYY 161848Z 29008KT 10SM CLR 07/01 A3025 RMK AO2 SLP967 T00670006
Observed Flight Rules
Jan-16 @ 18:48 UTC
(30 minutes ago)
VFR
Wind Visibility
290° at 8 knots 10 miles
Clouds
  • Clear skies
Temperature Dewpoint
7°C / 45°F 1°C / 34°F
Humidity Altimeter Pressure
66% 30.25" Hg 996.7 hPa